Yang Li Hu — BOGE — position and weather

sailwx.info

Track history (hours):
 
Tides and Currents Weather Stations Pressure Air Temp Water Temp Dewpoint Dewpoint Depression Visibility Wind Speed Wind Dir Waves Ship Positions

Yang Li Hu

Last reported at 2014-Jun-23 11:19 UTC. Time now 2014-Jul-28 18:29 UTC.
Position N 01°15' E 103°24'.
Warning: this ship's position is 35 days out of date.

Length 244 m; draft 8.6 m.

Type: Tanker. MMSI: 413975000.

Date/timePositionNaut miles runAvg speedWind from/ knotsBaromVisibWave heightAir tempDewpointWater temp
2014-Jun-23 11:19N 01°15' E 103°24'1114.0
2014-Jun-23 10:33N 01°12' E 103°34'8 7.7
2014-Jun-23 09:32N 01°11' E 103°42'0 0.0
2014-Jun-23 07:26N 01°11' E 103°42'0 0.1
2014-Jun-23 06:26N 01°11' E 103°42'0 0.1
2014-Jun-23 05:32N 01°11' E 103°42'0 0.1
2014-Jun-23 04:26N 01°11' E 103°42'0 0.1
2014-Jun-23 03:27N 01°11' E 103°42'1 0.9
2014-Jun-23 02:33N 01°10' E 103°42'4 4.4
2014-Jun-23 01:34N 01°14' E 103°42'0 0.1
2014-Jun-23 00:28N 01°14' E 103°42'0 0.0
2014-Jun-22 23:31N 01°14' E 103°42'0 0.0
2014-Jun-22 22:28N 01°14' E 103°42'0 0.0
2014-Jun-22 21:16N 01°14' E 103°42'0 0.0
2014-Jun-22 20:28N 01°14' E 103°42'0 0.0
2014-Jun-22 19:22N 01°14' E 103°42'0 0.0
2014-Jun-22 18:22N 01°14' E 103°42'0 0.0
2014-Jun-22 17:25N 01°14' E 103°42'0 0.0
2014-Jun-22 16:31N 01°14' E 103°42'0 0.0
2014-Jun-22 15:22N 01°14' E 103°42'0 0.0
2014-Jun-22 14:13N 01°14' E 103°42'0 0.0
2014-Jun-22 13:22N 01°14' E 103°42'0 0.0
2014-Jun-22 12:28N 01°14' E 103°42'0 0.0
2014-Jun-22 09:10N 01°14' E 103°42'0 0.0
2014-Jun-22 08:31N 01°14' E 103°42'0 0.0
2014-Jun-22 07:04N 01°14' E 103°42'0 0.0
2014-Jun-22 06:25N 01°14' E 103°42'0 0.0
2014-Jun-22 05:31N 01°14' E 103°42'0 0.0
2014-Jun-22 04:31N 01°14' E 103°42'0 0.0
2014-Jun-22 03:32N 01°14' E 103°42'2 2.0
2014-Jun-22 02:33N 01°13' E 103°41'1 1.4
2014-Jun-22 01:32N 01°11' E 103°41'0 0.1
2014-Jun-22 00:32N 01°11' E 103°41'0 0.0
2014-Jun-21 23:32N 01°11' E 103°41'0 0.0
2014-Jun-21 21:32N 01°11' E 103°41'0 0.0
2014-Jun-21 20:32N 01°11' E 103°41'0 0.1
2014-Jun-21 19:26N 01°11' E 103°41'0 0.1
2014-Jun-21 18:32N 01°11' E 103°41'0 0.0
2014-Jun-21 17:32N 01°11' E 103°41'0 0.1
2014-Jun-21 16:26N 01°11' E 103°41'0 0.1
2014-Jun-21 15:32N 01°11' E 103°41'0 0.0
2014-Jun-21 14:32N 01°11' E 103°41'0 0.0
2014-Jun-21 13:32N 01°11' E 103°41'0 0.0
2014-Jun-21 12:32N 01°11' E 103°41'0 0.1
2014-Jun-21 11:29N 01°11' E 103°41'0 0.0
2014-Jun-21 10:26N 01°11' E 103°41'0 0.0
2014-Jun-21 09:29N 01°11' E 103°41'0 0.1
2014-Jun-21 08:32N 01°11' E 103°41'0 0.0
2014-Jun-21 07:26N 01°11' E 103°41'0 0.1
2014-Jun-21 06:32N 01°11' E 103°41'0 0.0
2014-Jun-21 05:29N 01°11' E 103°41'0 0.1
2014-Jun-21 04:26N 01°11' E 103°41'0 0.0
2014-Jun-21 03:29N 01°11' E 103°41'0 0.0
2014-Jun-21 02:32N 01°11' E 103°41'0 0.0
2014-Jun-21 01:32N 01°11' E 103°41'0 0.0
2014-Jun-21 00:32N 01°11' E 103°41'0 0.0
2014-Jun-20 23:33N 01°11' E 103°41'0 0.0
2014-Jun-20 22:27N 01°11' E 103°41'0 0.0
2014-Jun-20 21:32N 01°11' E 103°41'0 0.0
2014-Jun-20 20:29N 01°11' E 103°41'0 0.0
2014-Jun-20 19:32N 01°11' E 103°41'0 0.1
2014-Jun-20 18:26N 01°11' E 103°41'0 0.0
2014-Jun-20 17:32N 01°11' E 103°41'0 0.0
2014-Jun-20 16:32N 01°11' E 103°41'0 0.0
2014-Jun-20 15:32N 01°11' E 103°41'0 0.0
2014-Jun-20 14:32N 01°11' E 103°41'0 0.0
2014-Jun-20 13:32N 01°11' E 103°41'0 0.0
2014-Jun-20 12:26N 01°11' E 103°41'0 0.1
2014-Jun-20 11:32N 01°11' E 103°41'0 0.1
2014-Jun-20 10:32N 01°11' E 103°41'0 0.0
2014-Jun-20 09:32N 01°11' E 103°41'0 0.0
2014-Jun-20 08:32N 01°11' E 103°41'0 0.0
2014-Jun-20 07:29N 01°11' E 103°41'0 0.0
2014-Jun-20 06:23N 01°11' E 103°41'0 0.1
2014-Jun-20 05:32N 01°11' E 103°41'0 0.0
2014-Jun-20 04:27N 01°11' E 103°41'0 0.1
2014-Jun-20 03:32N 01°11' E 103°41'0 0.0
2014-Jun-20 02:32N 01°11' E 103°41'0 0.0
2014-Jun-20 01:32N 01°11' E 103°41'0 0.0
2014-Jun-20 00:32N 01°11' E 103°41'0 0.0
2014-Jun-19 23:32N 01°11' E 103°41'0 0.0
2014-Jun-19 22:32N 01°11' E 103°41'0 0.0
2014-Jun-19 21:32N 01°11' E 103°41'0 0.0
2014-Jun-19 20:32N 01°11' E 103°41'0 0.1
2014-Jun-19 19:32N 01°11' E 103°41'0 0.0
2014-Jun-19 18:32N 01°11' E 103°41'0 0.1
2014-Jun-19 17:32N 01°11' E 103°41'0 0.0
2014-Jun-19 16:32N 01°11' E 103°41'0 0.0
2014-Jun-19 15:29N 01°11' E 103°41'0 0.0
2014-Jun-19 14:32N 01°11' E 103°41'0 0.0
2014-Jun-19 13:26N 01°11' E 103°41'0 0.1
2014-Jun-19 12:29N 01°11' E 103°41'0 0.2
2014-Jun-19 11:32N 01°11' E 103°41'0 0.0
2014-Jun-19 10:32N 01°11' E 103°41'0 0.0
2014-Jun-19 09:29N 01°11' E 103°41'0 0.0
2014-Jun-19 08:32N 01°11' E 103°41'0 0.0
2014-Jun-19 07:32N 01°11' E 103°41'0 0.0
2014-Jun-19 06:32N 01°11' E 103°41'0 0.1
2014-Jun-19 05:32N 01°11' E 103°41'0 0.0
2014-Jun-19 04:32N 01°11' E 103°41'0 0.0
2014-Jun-19 02:32N 01°11' E 103°41'0 0.0
2014-Jun-19 01:32N 01°11' E 103°41'0 0.0
2014-Jun-19 00:29N 01°11' E 103°41'0 0.0
2014-Jun-18 23:32N 01°11' E 103°41'0 0.0
2014-Jun-18 22:32N 01°11' E 103°41'0 0.0
2014-Jun-18 21:29N 01°11' E 103°41'0 0.1
2014-Jun-18 20:32N 01°11' E 103°41'0 0.0
2014-Jun-18 19:32N 01°11' E 103°41'0 0.1
2014-Jun-18 18:32N 01°11' E 103°41'0 0.1
2014-Jun-18 17:32N 01°11' E 103°41'0 0.2
2014-Jun-18 16:20N 01°11' E 103°41'0 0.1
2014-Jun-18 15:29N 01°11' E 103°41'0 0.0
2014-Jun-18 14:32N 01°11' E 103°41'0 0.0
2014-Jun-18 13:29N 01°11' E 103°41'0 0.0
2014-Jun-18 12:23N 01°11' E 103°41'0 0.2
2014-Jun-18 11:29N 01°11' E 103°41'0 0.1
2014-Jun-18 10:32N 01°11' E 103°41'0 0.0
2014-Jun-18 09:32N 01°11' E 103°41'0 0.0
2014-Jun-18 08:29N 01°11' E 103°41'0 0.0
2014-Jun-18 07:32N 01°11' E 103°41'0 0.0
2014-Jun-18 06:32N 01°11' E 103°41'0 0.0
2014-Jun-18 05:32N 01°11' E 103°41'0 0.1
2014-Jun-18 04:32N 01°11' E 103°41'0 0.0
2014-Jun-18 03:32N 01°11' E 103°41'0 0.1
2014-Jun-18 02:29N 01°11' E 103°41'0 0.0
2014-Jun-18 01:29N 01°11' E 103°41'0 0.0
2014-Jun-18 00:32N 01°11' E 103°41'0 0.0
2014-Jun-17 23:32N 01°11' E 103°41'0 0.0
2014-Jun-17 22:29N 01°11' E 103°41'0 0.1
2014-Jun-17 21:26N 01°11' E 103°41'0 0.0
2014-Jun-17 20:26N 01°11' E 103°41'0 0.0
2014-Jun-17 19:24N 01°11' E 103°41'0 0.1
2014-Jun-17 18:32N 01°11' E 103°41'0 0.1
2014-Jun-17 17:32N 01°11' E 103°41'0 0.1
2014-Jun-17 16:32N 01°11' E 103°41'0 0.1
2014-Jun-17 15:29N 01°11' E 103°41'0 0.0
2014-Jun-17 14:32N 01°11' E 103°41'0 0.0
2014-Jun-17 13:29N 01°11' E 103°41'0 0.0
2014-Jun-17 12:32N 01°11' E 103°41'0 0.0
2014-Jun-17 11:32N 01°11' E 103°41'0 0.1
2014-Jun-17 10:32N 01°11' E 103°41'0 0.2
2014-Jun-17 09:32N 01°11' E 103°41'0 0.0
2014-Jun-17 08:32N 01°11' E 103°41'0 0.0
2014-Jun-17 07:29N 01°11' E 103°41'0 0.0
2014-Jun-17 06:29N 01°11' E 103°41'0 0.0
2014-Jun-17 05:32N 01°11' E 103°41'0 0.0
2014-Jun-17 04:32N 01°11' E 103°41'0 0.1
2014-Jun-17 03:32N 01°11' E 103°41'0 0.0
2014-Jun-17 02:29N 01°11' E 103°41'0 0.0
2014-Jun-17 01:32N 01°11' E 103°41'0 0.0
2014-Jun-17 00:26N 01°11' E 103°41'0 0.0
2014-Jun-16 23:32N 01°11' E 103°41'0 0.0
2014-Jun-16 22:32N 01°11' E 103°41'0 0.0
2014-Jun-16 21:32N 01°11' E 103°41'0 0.0
2014-Jun-16 20:29N 01°11' E 103°41'0 0.0
2014-Jun-16 19:29N 01°11' E 103°41'0 0.1
2014-Jun-16 18:32N 01°11' E 103°41'0 0.0
2014-Jun-16 17:32N 01°11' E 103°41'0 0.0
2014-Jun-16 16:29N 01°11' E 103°41'0 0.1
2014-Jun-16 15:29N 01°11' E 103°41'0 0.1
2014-Jun-16 14:32N 01°11' E 103°41'0 0.1
2014-Jun-16 13:20N 01°11' E 103°41'0 0.1
2014-Jun-16 12:32N 01°11' E 103°41'0 0.0
2014-Jun-16 11:32N 01°11' E 103°41'0 0.1
2014-Jun-16 10:32N 01°11' E 103°41'0 0.1
2014-Jun-16 09:32N 01°11' E 103°41'0 0.2
2014-Jun-16 08:32N 01°11' E 103°41'0 0.0
2014-Jun-16 07:32N 01°11' E 103°41'0 0.0
2014-Jun-16 06:29N 01°11' E 103°41'0 0.0
2014-Jun-16 05:29N 01°11' E 103°41'0 0.0
2014-Jun-16 04:29N 01°11' E 103°41'0 0.0
2014-Jun-16 03:32N 01°11' E 103°41'0 0.0
2014-Jun-16 02:32N 01°11' E 103°41'0 0.0
2014-Jun-16 01:26N 01°11' E 103°41'0 0.0
2014-Jun-16 00:32N 01°11' E 103°41'0 0.0
2014-Jun-15 23:32N 01°11' E 103°41'0 0.0
2014-Jun-15 22:32N 01°11' E 103°41'0 0.0
2014-Jun-15 21:32N 01°11' E 103°41'0 0.1
2014-Jun-15 20:33N 01°11' E 103°41'3 3.3
2014-Jun-15 19:33N 01°14' E 103°42'1 0.7
2014-Jun-15 18:32N 01°15' E 103°41'0 0.0
2014-Jun-15 17:32N 01°15' E 103°41'0 0.0
2014-Jun-15 16:14N 01°15' E 103°41'0 0.0
2014-Jun-15 15:32N 01°15' E 103°41'0 0.0
2014-Jun-15 14:29N 01°15' E 103°41'0 0.0
2014-Jun-15 13:32N 01°15' E 103°41'0 0.0
2014-Jun-15 12:32N 01°15' E 103°41'0 0.0
2014-Jun-15 11:32N 01°15' E 103°41'0 0.0
2014-Jun-15 10:32N 01°15' E 103°41'0 0.0
2014-Jun-15 09:32N 01°15' E 103°41'0 0.0
2014-Jun-15 08:32N 01°15' E 103°41'0 0.0
2014-Jun-15 07:32N 01°15' E 103°41'0 0.0
2014-Jun-15 06:32N 01°15' E 103°41'0 0.0
2014-Jun-15 05:32N 01°15' E 103°41'0 0.0
2014-Jun-15 04:32N 01°15' E 103°41'0 0.0
2014-Jun-15 03:32N 01°15' E 103°41'0 0.0
2014-Jun-15 02:32N 01°15' E 103°41'0 0.0
2014-Jun-15 01:32N 01°15' E 103°41'0 0.0
2014-Jun-15 00:14N 01°15' E 103°41'0 0.0
2014-Jun-14 23:29N 01°15' E 103°41'0 0.0
2014-Jun-14 22:32N 01°15' E 103°41'0 0.0
2014-Jun-14 21:32N 01°15' E 103°41'0 0.0
2014-Jun-14 20:32N 01°15' E 103°41'0 0.0
2014-Jun-14 19:32N 01°15' E 103°41'0 0.0
2014-Jun-14 18:32N 01°15' E 103°41'0 0.0
2014-Jun-14 17:32N 01°15' E 103°41'0 0.0
2014-Jun-14 16:32N 01°15' E 103°41'0 0.0
2014-Jun-14 15:32N 01°15' E 103°41'0 0.0
2014-Jun-14 14:32N 01°15' E 103°41'0 0.0
2014-Jun-14 13:32N 01°15' E 103°41'0 0.0
2014-Jun-14 12:32N 01°15' E 103°41'0 0.0
2014-Jun-14 11:29N 01°15' E 103°41'0 0.0
2014-Jun-14 10:32N 01°15' E 103°41'0 0.0
2014-Jun-14 09:29N 01°15' E 103°41'0 0.0
2014-Jun-14 08:29N 01°15' E 103°41'0 0.0
2014-Jun-14 07:32N 01°15' E 103°41'0 0.0
2014-Jun-14 06:32N 01°15' E 103°41'1 0.7
2014-Jun-14 05:33N 01°15' E 103°42'4 4.4
2014-Jun-14 04:33N 01°15' E 103°46'6 5.6
2014-Jun-14 03:32N 01°13' E 103°52'  
Track history (hours):
 
Tides and Currents Weather Stations Pressure Air Temp Water Temp Dewpoint Dewpoint Depression Visibility Wind Speed Wind Dir Waves Ship Positions

Yang Li Hu

Last reported at 2014-Jun-23 11:19 UTC. Time now 2014-Jul-28 18:29 UTC.
Position N 01°15' E 103°24'.
Warning: this ship's position is 35 days out of date.

Length 244 m; draft 8.6 m.

Type: Tanker. MMSI: 413975000.

Date/timePositionNaut miles runAvg speedWind from/ knotsBaromVisibWave heightAir tempDewpointWater temp
2014-Jun-23 11:19N 01°15' E 103°24'1114.0
2014-Jun-23 10:33N 01°12' E 103°34'8 7.7
2014-Jun-23 09:32N 01°11' E 103°42'0 0.0
2014-Jun-23 07:26N 01°11' E 103°42'0 0.1
2014-Jun-23 06:26N 01°11' E 103°42'0 0.1
2014-Jun-23 05:32N 01°11' E 103°42'0 0.1
2014-Jun-23 04:26N 01°11' E 103°42'0 0.1
2014-Jun-23 03:27N 01°11' E 103°42'1 0.9
2014-Jun-23 02:33N 01°10' E 103°42'4 4.4
2014-Jun-23 01:34N 01°14' E 103°42'0 0.1
2014-Jun-23 00:28N 01°14' E 103°42'0 0.0
2014-Jun-22 23:31N 01°14' E 103°42'0 0.0
2014-Jun-22 22:28N 01°14' E 103°42'0 0.0
2014-Jun-22 21:16N 01°14' E 103°42'0 0.0
2014-Jun-22 20:28N 01°14' E 103°42'0 0.0
2014-Jun-22 19:22N 01°14' E 103°42'0 0.0
2014-Jun-22 18:22N 01°14' E 103°42'0 0.0
2014-Jun-22 17:25N 01°14' E 103°42'0 0.0
2014-Jun-22 16:31N 01°14' E 103°42'0 0.0
2014-Jun-22 15:22N 01°14' E 103°42'0 0.0
2014-Jun-22 14:13N 01°14' E 103°42'0 0.0
2014-Jun-22 13:22N 01°14' E 103°42'0 0.0
2014-Jun-22 12:28N 01°14' E 103°42'0 0.0
2014-Jun-22 09:10N 01°14' E 103°42'0 0.0
2014-Jun-22 08:31N 01°14' E 103°42'0 0.0
2014-Jun-22 07:04N 01°14' E 103°42'0 0.0
2014-Jun-22 06:25N 01°14' E 103°42'0 0.0
2014-Jun-22 05:31N 01°14' E 103°42'0 0.0
2014-Jun-22 04:31N 01°14' E 103°42'0 0.0
2014-Jun-22 03:32N 01°14' E 103°42'2 2.0
2014-Jun-22 02:33N 01°13' E 103°41'1 1.4
2014-Jun-22 01:32N 01°11' E 103°41'0 0.1
2014-Jun-22 00:32N 01°11' E 103°41'0 0.0
2014-Jun-21 23:32N 01°11' E 103°41'0 0.0
2014-Jun-21 21:32N 01°11' E 103°41'0 0.0
2014-Jun-21 20:32N 01°11' E 103°41'0 0.1
2014-Jun-21 19:26N 01°11' E 103°41'0 0.1
2014-Jun-21 18:32N 01°11' E 103°41'0 0.0
2014-Jun-21 17:32N 01°11' E 103°41'0 0.1
2014-Jun-21 16:26N 01°11' E 103°41'0 0.1
2014-Jun-21 15:32N 01°11' E 103°41'0 0.0
2014-Jun-21 14:32N 01°11' E 103°41'0 0.0
2014-Jun-21 13:32N 01°11' E 103°41'0 0.0
2014-Jun-21 12:32N 01°11' E 103°41'0 0.1
2014-Jun-21 11:29N 01°11' E 103°41'0 0.0
2014-Jun-21 10:26N 01°11' E 103°41'0 0.0
2014-Jun-21 09:29N 01°11' E 103°41'0 0.1
2014-Jun-21 08:32N 01°11' E 103°41'0 0.0
2014-Jun-21 07:26N 01°11' E 103°41'0 0.1
2014-Jun-21 06:32N 01°11' E 103°41'0 0.0
2014-Jun-21 05:29N 01°11' E 103°41'0 0.1
2014-Jun-21 04:26N 01°11' E 103°41'0 0.0
2014-Jun-21 03:29N 01°11' E 103°41'0 0.0
2014-Jun-21 02:32N 01°11' E 103°41'0 0.0
2014-Jun-21 01:32N 01°11' E 103°41'0 0.0
2014-Jun-21 00:32N 01°11' E 103°41'0 0.0
2014-Jun-20 23:33N 01°11' E 103°41'0 0.0
2014-Jun-20 22:27N 01°11' E 103°41'0 0.0
2014-Jun-20 21:32N 01°11' E 103°41'0 0.0
2014-Jun-20 20:29N 01°11' E 103°41'0 0.0
2014-Jun-20 19:32N 01°11' E 103°41'0 0.1
2014-Jun-20 18:26N 01°11' E 103°41'0 0.0
2014-Jun-20 17:32N 01°11' E 103°41'0 0.0
2014-Jun-20 16:32N 01°11' E 103°41'0 0.0
2014-Jun-20 15:32N 01°11' E 103°41'0 0.0
2014-Jun-20 14:32N 01°11' E 103°41'0 0.0
2014-Jun-20 13:32N 01°11' E 103°41'0 0.0
2014-Jun-20 12:26N 01°11' E 103°41'0 0.1
2014-Jun-20 11:32N 01°11' E 103°41'0 0.1
2014-Jun-20 10:32N 01°11' E 103°41'0 0.0
2014-Jun-20 09:32N 01°11' E 103°41'0 0.0
2014-Jun-20 08:32N 01°11' E 103°41'0 0.0
2014-Jun-20 07:29N 01°11' E 103°41'0 0.0
2014-Jun-20 06:23N 01°11' E 103°41'0 0.1
2014-Jun-20 05:32N 01°11' E 103°41'0 0.0
2014-Jun-20 04:27N 01°11' E 103°41'0 0.1
2014-Jun-20 03:32N 01°11' E 103°41'0 0.0
2014-Jun-20 02:32N 01°11' E 103°41'0 0.0
2014-Jun-20 01:32N 01°11' E 103°41'0 0.0
2014-Jun-20 00:32N 01°11' E 103°41'0 0.0
2014-Jun-19 23:32N 01°11' E 103°41'0 0.0
2014-Jun-19 22:32N 01°11' E 103°41'0 0.0
2014-Jun-19 21:32N 01°11' E 103°41'0 0.0
2014-Jun-19 20:32N 01°11' E 103°41'0 0.1
2014-Jun-19 19:32N 01°11' E 103°41'0 0.0
2014-Jun-19 18:32N 01°11' E 103°41'0 0.1
2014-Jun-19 17:32N 01°11' E 103°41'0 0.0
2014-Jun-19 16:32N 01°11' E 103°41'0 0.0
2014-Jun-19 15:29N 01°11' E 103°41'0 0.0
2014-Jun-19 14:32N 01°11' E 103°41'0 0.0
2014-Jun-19 13:26N 01°11' E 103°41'0 0.1
2014-Jun-19 12:29N 01°11' E 103°41'0 0.2
2014-Jun-19 11:32N 01°11' E 103°41'0 0.0
2014-Jun-19 10:32N 01°11' E 103°41'0 0.0
2014-Jun-19 09:29N 01°11' E 103°41'0 0.0
2014-Jun-19 08:32N 01°11' E 103°41'0 0.0
2014-Jun-19 07:32N 01°11' E 103°41'0 0.0
2014-Jun-19 06:32N 01°11' E 103°41'0 0.1
2014-Jun-19 05:32N 01°11' E 103°41'0 0.0
2014-Jun-19 04:32N 01°11' E 103°41'0 0.0
2014-Jun-19 02:32N 01°11' E 103°41'0 0.0
2014-Jun-19 01:32N 01°11' E 103°41'0 0.0
2014-Jun-19 00:29N 01°11' E 103°41'0 0.0
2014-Jun-18 23:32N 01°11' E 103°41'0 0.0
2014-Jun-18 22:32N 01°11' E 103°41'0 0.0
2014-Jun-18 21:29N 01°11' E 103°41'0 0.1
2014-Jun-18 20:32N 01°11' E 103°41'0 0.0
2014-Jun-18 19:32N 01°11' E 103°41'0 0.1
2014-Jun-18 18:32N 01°11' E 103°41'0 0.1
2014-Jun-18 17:32N 01°11' E 103°41'0 0.2
2014-Jun-18 16:20N 01°11' E 103°41'0 0.1
2014-Jun-18 15:29N 01°11' E 103°41'0 0.0
2014-Jun-18 14:32N 01°11' E 103°41'0 0.0
2014-Jun-18 13:29N 01°11' E 103°41'0 0.0
2014-Jun-18 12:23N 01°11' E 103°41'0 0.2
2014-Jun-18 11:29N 01°11' E 103°41'0 0.1
2014-Jun-18 10:32N 01°11' E 103°41'0 0.0
2014-Jun-18 09:32N 01°11' E 103°41'0 0.0
2014-Jun-18 08:29N 01°11' E 103°41'0 0.0
2014-Jun-18 07:32N 01°11' E 103°41'0 0.0
2014-Jun-18 06:32N 01°11' E 103°41'0 0.0
2014-Jun-18 05:32N 01°11' E 103°41'0 0.1
2014-Jun-18 04:32N 01°11' E 103°41'0 0.0
2014-Jun-18 03:32N 01°11' E 103°41'0 0.1
2014-Jun-18 02:29N 01°11' E 103°41'0 0.0
2014-Jun-18 01:29N 01°11' E 103°41'0 0.0
2014-Jun-18 00:32N 01°11' E 103°41'0 0.0
2014-Jun-17 23:32N 01°11' E 103°41'0 0.0
2014-Jun-17 22:29N 01°11' E 103°41'0 0.1
2014-Jun-17 21:26N 01°11' E 103°41'0 0.0
2014-Jun-17 20:26N 01°11' E 103°41'0 0.0
2014-Jun-17 19:24N 01°11' E 103°41'0 0.1
2014-Jun-17 18:32N 01°11' E 103°41'0 0.1
2014-Jun-17 17:32N 01°11' E 103°41'0 0.1
2014-Jun-17 16:32N 01°11' E 103°41'0 0.1
2014-Jun-17 15:29N 01°11' E 103°41'0 0.0
2014-Jun-17 14:32N 01°11' E 103°41'0 0.0
2014-Jun-17 13:29N 01°11' E 103°41'0 0.0
2014-Jun-17 12:32N 01°11' E 103°41'0 0.0
2014-Jun-17 11:32N 01°11' E 103°41'0 0.1
2014-Jun-17 10:32N 01°11' E 103°41'0 0.2
2014-Jun-17 09:32N 01°11' E 103°41'0 0.0
2014-Jun-17 08:32N 01°11' E 103°41'0 0.0
2014-Jun-17 07:29N 01°11' E 103°41'0 0.0
2014-Jun-17 06:29N 01°11' E 103°41'0 0.0
2014-Jun-17 05:32N 01°11' E 103°41'0 0.0
2014-Jun-17 04:32N 01°11' E 103°41'0 0.1
2014-Jun-17 03:32N 01°11' E 103°41'0 0.0
2014-Jun-17 02:29N 01°11' E 103°41'0 0.0
2014-Jun-17 01:32N 01°11' E 103°41'0 0.0
2014-Jun-17 00:26N 01°11' E 103°41'0 0.0
2014-Jun-16 23:32N 01°11' E 103°41'0 0.0
2014-Jun-16 22:32N 01°11' E 103°41'0 0.0
2014-Jun-16 21:32N 01°11' E 103°41'0 0.0
2014-Jun-16 20:29N 01°11' E 103°41'0 0.0
2014-Jun-16 19:29N 01°11' E 103°41'0 0.1
2014-Jun-16 18:32N 01°11' E 103°41'0 0.0
2014-Jun-16 17:32N 01°11' E 103°41'0 0.0
2014-Jun-16 16:29N 01°11' E 103°41'0 0.1
2014-Jun-16 15:29N 01°11' E 103°41'0 0.1
2014-Jun-16 14:32N 01°11' E 103°41'0 0.1
2014-Jun-16 13:20N 01°11' E 103°41'0 0.1
2014-Jun-16 12:32N 01°11' E 103°41'0 0.0
2014-Jun-16 11:32N 01°11' E 103°41'0 0.1
2014-Jun-16 10:32N 01°11' E 103°41'0 0.1
2014-Jun-16 09:32N 01°11' E 103°41'0 0.2
2014-Jun-16 08:32N 01°11' E 103°41'0 0.0
2014-Jun-16 07:32N 01°11' E 103°41'0 0.0
2014-Jun-16 06:29N 01°11' E 103°41'0 0.0
2014-Jun-16 05:29N 01°11' E 103°41'0 0.0
2014-Jun-16 04:29N 01°11' E 103°41'0 0.0
2014-Jun-16 03:32N 01°11' E 103°41'0 0.0
2014-Jun-16 02:32N 01°11' E 103°41'0 0.0
2014-Jun-16 01:26N 01°11' E 103°41'0 0.0
2014-Jun-16 00:32N 01°11' E 103°41'0 0.0
2014-Jun-15 23:32N 01°11' E 103°41'0 0.0
2014-Jun-15 22:32N 01°11' E 103°41'0 0.0
2014-Jun-15 21:32N 01°11' E 103°41'0 0.1
2014-Jun-15 20:33N 01°11' E 103°41'3 3.3
2014-Jun-15 19:33N 01°14' E 103°42'1 0.7
2014-Jun-15 18:32N 01°15' E 103°41'0 0.0
2014-Jun-15 17:32N 01°15' E 103°41'0 0.0
2014-Jun-15 16:14N 01°15' E 103°41'0 0.0
2014-Jun-15 15:32N 01°15' E 103°41'0 0.0
2014-Jun-15 14:29N 01°15' E 103°41'0 0.0
2014-Jun-15 13:32N 01°15' E 103°41'0 0.0
2014-Jun-15 12:32N 01°15' E 103°41'0 0.0
2014-Jun-15 11:32N 01°15' E 103°41'0 0.0
2014-Jun-15 10:32N 01°15' E 103°41'0 0.0
2014-Jun-15 09:32N 01°15' E 103°41'0 0.0
2014-Jun-15 08:32N 01°15' E 103°41'0 0.0
2014-Jun-15 07:32N 01°15' E 103°41'0 0.0
2014-Jun-15 06:32N 01°15' E 103°41'0 0.0
2014-Jun-15 05:32N 01°15' E 103°41'0 0.0
2014-Jun-15 04:32N 01°15' E 103°41'0 0.0
2014-Jun-15 03:32N 01°15' E 103°41'0 0.0
2014-Jun-15 02:32N 01°15' E 103°41'0 0.0
2014-Jun-15 01:32N 01°15' E 103°41'0 0.0
2014-Jun-15 00:14N 01°15' E 103°41'0 0.0
2014-Jun-14 23:29N 01°15' E 103°41'0 0.0
2014-Jun-14 22:32N 01°15' E 103°41'0 0.0
2014-Jun-14 21:32N 01°15' E 103°41'0 0.0
2014-Jun-14 20:32N 01°15' E 103°41'0 0.0
2014-Jun-14 19:32N 01°15' E 103°41'0 0.0
2014-Jun-14 18:32N 01°15' E 103°41'0 0.0
2014-Jun-14 17:32N 01°15' E 103°41'0 0.0
2014-Jun-14 16:32N 01°15' E 103°41'0 0.0
2014-Jun-14 15:32N 01°15' E 103°41'0 0.0
2014-Jun-14 14:32N 01°15' E 103°41'0 0.0
2014-Jun-14 13:32N 01°15' E 103°41'0 0.0
2014-Jun-14 12:32N 01°15' E 103°41'0 0.0
2014-Jun-14 11:29N 01°15' E 103°41'0 0.0
2014-Jun-14 10:32N 01°15' E 103°41'0 0.0
2014-Jun-14 09:29N 01°15' E 103°41'0 0.0
2014-Jun-14 08:29N 01°15' E 103°41'0 0.0
2014-Jun-14 07:32N 01°15' E 103°41'0 0.0
2014-Jun-14 06:32N 01°15' E 103°41'1 0.7
2014-Jun-14 05:33N 01°15' E 103°42'4 4.4
2014-Jun-14 04:33N 01°15' E 103°46'6 5.6
2014-Jun-14 03:32N 01°13' E 103°52'  

Dump ship's entire track history